EFMI

Mikkeli Airport

Mikkeli, Finland
METAR EFMI 140020Z AUTO 00000KT 5000 -UP OVC011 M05/M06 Q1034
Observed Flight Rules
Dec-14 @ 00:20 UTC (23 minutes ago) Marginal Visual Flight Rules
Visibility Clouds Conditions
5,005 meters
  • Overcast at 1,100' AGL
  • Unknown precipitation
Temperatures Readings
Current -5°C / 23°F
Dewpoint -6°C / 21°F
Humidity 93%
Altimeter 30.53" Hg
Pressure 1034 hPa
Elevation 138
METAR EFMI 140020Z AUTO 00000KT 5000 -UP OVC011 M05/M06 Q1034
Observed Flight Rules
Dec-14 @ 00:20 UTC
(23 minutes ago)
MVFR
Clouds
  • Overcast at 1,100' AGL
Conditions
  • Unknown precipitation
Temperature Dewpoint
-5°C / 23°F -6°C / 21°F
Humidity Altimeter Pressure
93% 30.53" Hg 1034 hPa